sensor_id;sensor_type;location;lat;lon;timestamp;temperature;humidity
20594;DHT22;10455;48.732;10.266;2023-06-14T00:04:46;8.80;99.90
20594;DHT22;10455;48.732;10.266;2023-06-14T00:09:50;8.70;99.90
20594;DHT22;10455;48.732;10.266;2023-06-14T00:14:51;8.60;99.90
20594;DHT22;10455;48.732;10.266;2023-06-14T00:19:53;8.50;99.90
20594;DHT22;10455;48.732;10.266;2023-06-14T00:24:58;8.50;99.90
20594;DHT22;10455;48.732;10.266;2023-06-14T00:30:00;8.30;99.90
20594;DHT22;10455;48.732;10.266;2023-06-14T00:35:02;8.20;99.90
20594;DHT22;10455;48.732;10.266;2023-06-14T00:40:07;8.10;99.90
20594;DHT22;10455;48.732;10.266;2023-06-14T00:45:10;8.00;99.90
20594;DHT22;10455;48.732;10.266;2023-06-14T00:50:12;7.90;99.90
20594;DHT22;10455;48.732;10.266;2023-06-14T00:55:16;7.80;99.90
20594;DHT22;10455;48.732;10.266;2023-06-14T01:00:18;7.90;99.90
20594;DHT22;10455;48.732;10.266;2023-06-14T01:05:20;7.90;99.90
20594;DHT22;10455;48.732;10.266;2023-06-14T01:10:32;7.80;99.90
20594;DHT22;10455;48.732;10.266;2023-06-14T01:15:38;7.70;99.90
20594;DHT22;10455;48.732;10.266;2023-06-14T01:20:40;7.70;99.90
20594;DHT22;10455;48.732;10.266;2023-06-14T01:25:44;7.60;99.90
20594;DHT22;10455;48.732;10.266;2023-06-14T01:30:50;7.60;99.90
20594;DHT22;10455;48.732;10.266;2023-06-14T01:35:55;7.70;99.90
20594;DHT22;10455;48.732;10.266;2023-06-14T01:40:59;7.70;99.90
20594;DHT22;10455;48.732;10.266;2023-06-14T01:46:03;7.80;99.90
20594;DHT22;10455;48.732;10.266;2023-06-14T01:51:05;7.60;99.90
20594;DHT22;10455;48.732;10.266;2023-06-14T01:56:09;7.60;99.90
20594;DHT22;10455;48.732;10.266;2023-06-14T02:01:11;7.50;99.90
20594;DHT22;10455;48.732;10.266;2023-06-14T02:06:13;7.30;99.90
20594;DHT22;10455;48.732;10.266;2023-06-14T02:11:17;7.30;99.90
20594;DHT22;10455;48.732;10.266;2023-06-14T02:16:19;7.30;99.90
20594;DHT22;10455;48.732;10.266;2023-06-14T02:21:21;7.30;99.90
20594;DHT22;10455;48.732;10.266;2023-06-14T02:26:24;7.20;99.90
20594;DHT22;10455;48.732;10.266;2023-06-14T02:31:29;7.10;99.90
20594;DHT22;10455;48.732;10.266;2023-06-14T02:36:31;7.00;99.90
20594;DHT22;10455;48.732;10.266;2023-06-14T02:41:34;7.00;99.90
20594;DHT22;10455;48.732;10.266;2023-06-14T02:46:36;7.00;99.90
20594;DHT22;10455;48.732;10.266;2023-06-14T02:51:38;7.20;99.90
20594;DHT22;10455;48.732;10.266;2023-06-14T02:56:42;7.20;99.90
20594;DHT22;10455;48.732;10.266;2023-06-14T03:01:44;6.90;99.90
20594;DHT22;10455;48.732;10.266;2023-06-14T03:06:46;6.80;99.90
20594;DHT22;10455;48.732;10.266;2023-06-14T03:11:52;6.70;99.90
20594;DHT22;10455;48.732;10.266;2023-06-14T03:16:54;6.80;99.90
20594;DHT22;10455;48.732;10.266;2023-06-14T03:21:57;7.10;99.90
20594;DHT22;10455;48.732;10.266;2023-06-14T03:27:00;7.10;99.90
20594;DHT22;10455;48.732;10.266;2023-06-14T03:32:03;7.00;99.90
20594;DHT22;10455;48.732;10.266;2023-06-14T03:37:05;7.00;99.90
20594;DHT22;10455;48.732;10.266;2023-06-14T03:42:09;7.00;99.90
20594;DHT22;10455;48.732;10.266;2023-06-14T03:47:11;7.10;99.90
20594;DHT22;10455;48.732;10.266;2023-06-14T03:52:13;7.20;99.90
20594;DHT22;10455;48.732;10.266;2023-06-14T03:57:18;7.50;99.90
20594;DHT22;10455;48.732;10.266;2023-06-14T04:02:20;8.00;99.90
20594;DHT22;10455;48.732;10.266;2023-06-14T04:07:23;8.30;99.90
20594;DHT22;10455;48.732;10.266;2023-06-14T04:12:26;8.50;99.90
20594;DHT22;10455;48.732;10.266;2023-06-14T04:17:28;8.70;99.90
20594;DHT22;10455;48.732;10.266;2023-06-14T04:22:30;10.00;99.90
20594;DHT22;10455;48.732;10.266;2023-06-14T04:27:34;13.50;99.90
20594;DHT22;10455;48.732;10.266;2023-06-14T04:32:36;16.30;97.30
20594;DHT22;10455;48.732;10.266;2023-06-14T04:37:39;18.40;92.20
20594;DHT22;10455;48.732;10.266;2023-06-14T04:42:43;19.40;87.80
20594;DHT22;10455;48.732;10.266;2023-06-14T04:47:46;20.30;85.40
20594;DHT22;10455;48.732;10.266;2023-06-14T04:52:48;22.20;82.20
20594;DHT22;10455;48.732;10.266;2023-06-14T04:57:53;23.80;77.00
20594;DHT22;10455;48.732;10.266;2023-06-14T05:02:55;24.80;73.10
20594;DHT22;10455;48.732;10.266;2023-06-14T05:07:57;25.80;71.30
20594;DHT22;10455;48.732;10.266;2023-06-14T05:13:01;26.00;71.20
20594;DHT22;10455;48.732;10.266;2023-06-14T05:18:03;27.20;66.90
20594;DHT22;10455;48.732;10.266;2023-06-14T05:23:05;28.50;63.70
20594;DHT22;10455;48.732;10.266;2023-06-14T05:28:08;28.60;62.70
20594;DHT22;10455;48.732;10.266;2023-06-14T05:33:10;28.10;63.10
20594;DHT22;10455;48.732;10.266;2023-06-14T05:38:12;29.60;61.00
20594;DHT22;10455;48.732;10.266;2023-06-14T05:43:15;30.90;59.00
20594;DHT22;10455;48.732;10.266;2023-06-14T05:48:17;31.20;58.40
20594;DHT22;10455;48.732;10.266;2023-06-14T05:53:19;30.10;59.40
20594;DHT22;10455;48.732;10.266;2023-06-14T05:58:22;27.80;62.60
20594;DHT22;10455;48.732;10.266;2023-06-14T06:03:24;25.90;66.90
20594;DHT22;10455;48.732;10.266;2023-06-14T06:08:26;25.80;66.90
20594;DHT22;10455;48.732;10.266;2023-06-14T06:13:29;24.90;68.70
20594;DHT22;10455;48.732;10.266;2023-06-14T06:18:31;23.80;72.20
20594;DHT22;10455;48.732;10.266;2023-06-14T06:23:33;25.30;69.00
20594;DHT22;10455;48.732;10.266;2023-06-14T06:28:37;25.90;67.40
20594;DHT22;10455;48.732;10.266;2023-06-14T06:33:39;25.50;68.30
20594;DHT22;10455;48.732;10.266;2023-06-14T06:38:41;24.10;70.20
20594;DHT22;10455;48.732;10.266;2023-06-14T06:43:45;24.80;68.40
20594;DHT22;10455;48.732;10.266;2023-06-14T06:48:47;24.50;70.90
20594;DHT22;10455;48.732;10.266;2023-06-14T06:53:53;24.70;69.70
20594;DHT22;10455;48.732;10.266;2023-06-14T06:58:56;26.30;66.90
20594;DHT22;10455;48.732;10.266;2023-06-14T07:03:58;26.20;67.00
20594;DHT22;10455;48.732;10.266;2023-06-14T07:09:00;26.40;64.30
20594;DHT22;10455;48.732;10.266;2023-06-14T07:14:03;25.80;67.00
20594;DHT22;10455;48.732;10.266;2023-06-14T07:19:05;26.10;66.70
20594;DHT22;10455;48.732;10.266;2023-06-14T07:24:07;26.20;65.90
20594;DHT22;10455;48.732;10.266;2023-06-14T07:29:10;25.80;66.90
20594;DHT22;10455;48.732;10.266;2023-06-14T07:34:15;26.80;66.20
20594;DHT22;10455;48.732;10.266;2023-06-14T07:39:17;28.50;63.30
20594;DHT22;10455;48.732;10.266;2023-06-14T07:44:21;26.70;65.40
20594;DHT22;10455;48.732;10.266;2023-06-14T07:49:23;28.30;62.40
20594;DHT22;10455;48.732;10.266;2023-06-14T07:54:25;28.30;62.60
20594;DHT22;10455;48.732;10.266;2023-06-14T07:59:30;28.50;62.20
20594;DHT22;10455;48.732;10.266;2023-06-14T08:04:32;29.20;60.20
20594;DHT22;10455;48.732;10.266;2023-06-14T08:09:35;28.40;63.00
20594;DHT22;10455;48.732;10.266;2023-06-14T08:14:42;30.00;60.00
20594;DHT22;10455;48.732;10.266;2023-06-14T08:19:44;29.90;58.90
20594;DHT22;10455;48.732;10.266;2023-06-14T08:24:46;28.80;60.10
20594;DHT22;10455;48.732;10.266;2023-06-14T08:29:49;29.40;57.60
20594;DHT22;10455;48.732;10.266;2023-06-14T08:34:51;29.40;58.10
20594;DHT22;10455;48.732;10.266;2023-06-14T08:39:53;28.80;57.90
20594;DHT22;10455;48.732;10.266;2023-06-14T08:44:58;29.00;59.40
20594;DHT22;10455;48.732;10.266;2023-06-14T08:50:00;28.50;58.00
20594;DHT22;10455;48.732;10.266;2023-06-14T08:55:02;29.90;57.30
20594;DHT22;10455;48.732;10.266;2023-06-14T09:00:07;29.30;58.80
20594;DHT22;10455;48.732;10.266;2023-06-14T09:05:12;29.10;59.90
20594;DHT22;10455;48.732;10.266;2023-06-14T09:10:15;29.10;59.00
20594;DHT22;10455;48.732;10.266;2023-06-14T09:15:18;27.80;61.50
20594;DHT22;10455;48.732;10.266;2023-06-14T09:20:21;31.10;56.60
20594;DHT22;10455;48.732;10.266;2023-06-14T09:25:23;29.30;58.00
20594;DHT22;10455;48.732;10.266;2023-06-14T09:30:27;29.60;56.80
20594;DHT22;10455;48.732;10.266;2023-06-14T09:35:31;30.00;57.90
20594;DHT22;10455;48.732;10.266;2023-06-14T09:40:34;29.70;59.40
20594;DHT22;10455;48.732;10.266;2023-06-14T09:45:39;29.80;58.50
20594;DHT22;10455;48.732;10.266;2023-06-14T09:50:41;29.60;55.50
20594;DHT22;10455;48.732;10.266;2023-06-14T09:55:44;31.00;53.30
20594;DHT22;10455;48.732;10.266;2023-06-14T10:00:50;27.70;57.00
20594;DHT22;10455;48.732;10.266;2023-06-14T10:05:54;26.30;59.50
20594;DHT22;10455;48.732;10.266;2023-06-14T10:10:57;30.70;54.90
20594;DHT22;10455;48.732;10.266;2023-06-14T10:16:07;27.60;57.40
20594;DHT22;10455;48.732;10.266;2023-06-14T10:21:16;26.20;62.10
20594;DHT22;10455;48.732;10.266;2023-06-14T10:26:22;24.70;62.70
20594;DHT22;10455;48.732;10.266;2023-06-14T10:31:39;23.90;65.50
20594;DHT22;10455;48.732;10.266;2023-06-14T10:36:42;24.00;65.10
20594;DHT22;10455;48.732;10.266;2023-06-14T10:41:52;25.20;63.10
20594;DHT22;10455;48.732;10.266;2023-06-14T10:46:55;27.50;57.90
20594;DHT22;10455;48.732;10.266;2023-06-14T10:51:59;27.20;59.10
20594;DHT22;10455;48.732;10.266;2023-06-14T10:57:01;29.60;56.50
20594;DHT22;10455;48.732;10.266;2023-06-14T11:02:27;32.70;52.90
20594;DHT22;10455;48.732;10.266;2023-06-14T11:07:47;33.10;53.00
20594;DHT22;10455;48.732;10.266;2023-06-14T11:12:51;30.00;55.40
20594;DHT22;10455;48.732;10.266;2023-06-14T11:17:58;28.30;56.90
20594;DHT22;10455;48.732;10.266;2023-06-14T11:23:02;30.00;54.30
20594;DHT22;10455;48.732;10.266;2023-06-14T11:28:04;30.90;52.00
20594;DHT22;10455;48.732;10.266;2023-06-14T11:33:09;31.10;52.90
20594;DHT22;10455;48.732;10.266;2023-06-14T11:38:12;27.80;56.10
20594;DHT22;10455;48.732;10.266;2023-06-14T11:43:14;28.80;55.60
20594;DHT22;10455;48.732;10.266;2023-06-14T11:48:17;29.90;53.60
20594;DHT22;10455;48.732;10.266;2023-06-14T11:53:19;33.50;51.00
20594;DHT22;10455;48.732;10.266;2023-06-14T11:58:21;35.00;48.80
20594;DHT22;10455;48.732;10.266;2023-06-14T12:03:25;30.50;53.10
20594;DHT22;10455;48.732;10.266;2023-06-14T12:08:32;28.00;55.70
20594;DHT22;10455;48.732;10.266;2023-06-14T12:13:39;26.40;57.70
20594;DHT22;10455;48.732;10.266;2023-06-14T12:18:43;26.60;59.50
20594;DHT22;10455;48.732;10.266;2023-06-14T12:23:46;27.70;58.70
20594;DHT22;10455;48.732;10.266;2023-06-14T12:28:48;30.30;55.10
20594;DHT22;10455;48.732;10.266;2023-06-14T12:33:52;31.80;52.70
20594;DHT22;10455;48.732;10.266;2023-06-14T12:38:54;27.40;57.50
20594;DHT22;10455;48.732;10.266;2023-06-14T12:43:56;25.20;61.50
20594;DHT22;10455;48.732;10.266;2023-06-14T12:49:01;24.70;62.80
20594;DHT22;10455;48.732;10.266;2023-06-14T12:54:03;24.20;63.60
20594;DHT22;10455;48.732;10.266;2023-06-14T12:59:05;24.30;63.60
20594;DHT22;10455;48.732;10.266;2023-06-14T13:04:09;24.60;63.10
20594;DHT22;10455;48.732;10.266;2023-06-14T13:09:11;25.20;61.20
20594;DHT22;10455;48.732;10.266;2023-06-14T13:14:13;25.20;61.90
20594;DHT22;10455;48.732;10.266;2023-06-14T13:19:17;25.50;60.30
20594;DHT22;10455;48.732;10.266;2023-06-14T13:24:19;26.20;60.40
20594;DHT22;10455;48.732;10.266;2023-06-14T13:29:20;26.10;59.30
20594;DHT22;10455;48.732;10.266;2023-06-14T13:34:24;27.80;56.20
20594;DHT22;10455;48.732;10.266;2023-06-14T13:39:26;28.50;56.20
20594;DHT22;10455;48.732;10.266;2023-06-14T13:44:28;30.10;54.50
20594;DHT22;10455;48.732;10.266;2023-06-14T13:49:31;30.30;53.20
20594;DHT22;10455;48.732;10.266;2023-06-14T13:54:35;28.10;56.30
20594;DHT22;10455;48.732;10.266;2023-06-14T13:59:37;26.00;59.00
20594;DHT22;10455;48.732;10.266;2023-06-14T14:04:41;25.70;59.70
20594;DHT22;10455;48.732;10.266;2023-06-14T14:09:43;26.70;58.40
20594;DHT22;10455;48.732;10.266;2023-06-14T14:14:44;29.00;55.20
20594;DHT22;10455;48.732;10.266;2023-06-14T14:19:48;29.10;54.90
20594;DHT22;10455;48.732;10.266;2023-06-14T14:24:50;28.00;56.50
20594;DHT22;10455;48.732;10.266;2023-06-14T14:29:52;27.90;56.10
20594;DHT22;10455;48.732;10.266;2023-06-14T14:34:55;26.90;57.50
20594;DHT22;10455;48.732;10.266;2023-06-14T14:39:57;28.40;55.10
20594;DHT22;10455;48.732;10.266;2023-06-14T14:44:59;30.40;53.00
20594;DHT22;10455;48.732;10.266;2023-06-14T14:50:02;31.30;51.70
20594;DHT22;10455;48.732;10.266;2023-06-14T14:55:05;31.30;52.20
20594;DHT22;10455;48.732;10.266;2023-06-14T15:00:07;32.40;50.50
20594;DHT22;10455;48.732;10.266;2023-06-14T15:05:11;31.50;50.80
20594;DHT22;10455;48.732;10.266;2023-06-14T15:10:13;28.10;55.20
20594;DHT22;10455;48.732;10.266;2023-06-14T15:15:15;25.90;59.00
20594;DHT22;10455;48.732;10.266;2023-06-14T15:20:19;26.00;59.00
20594;DHT22;10455;48.732;10.266;2023-06-14T15:25:20;26.60;58.90
20594;DHT22;10455;48.732;10.266;2023-06-14T15:30:22;27.00;59.80
20594;DHT22;10455;48.732;10.266;2023-06-14T15:35:26;28.30;57.90
20594;DHT22;10455;48.732;10.266;2023-06-14T15:40:27;27.80;57.20
20594;DHT22;10455;48.732;10.266;2023-06-14T15:45:29;25.50;60.30
20594;DHT22;10455;48.732;10.266;2023-06-14T15:50:33;24.80;63.00
20594;DHT22;10455;48.732;10.266;2023-06-14T15:55:34;24.50;63.80
20594;DHT22;10455;48.732;10.266;2023-06-14T16:00:36;24.60;64.50
20594;DHT22;10455;48.732;10.266;2023-06-14T16:05:40;24.30;64.40
20594;DHT22;10455;48.732;10.266;2023-06-14T16:10:41;23.60;63.80
20594;DHT22;10455;48.732;10.266;2023-06-14T16:15:43;23.90;63.80
20594;DHT22;10455;48.732;10.266;2023-06-14T16:20:47;25.60;61.80
20594;DHT22;10455;48.732;10.266;2023-06-14T16:25:49;25.70;61.00
20594;DHT22;10455;48.732;10.266;2023-06-14T16:30:51;25.90;61.30
20594;DHT22;10455;48.732;10.266;2023-06-14T16:35:54;25.70;61.30
20594;DHT22;10455;48.732;10.266;2023-06-14T16:40:57;24.30;62.80
20594;DHT22;10455;48.732;10.266;2023-06-14T16:45:59;23.40;65.80
20594;DHT22;10455;48.732;10.266;2023-06-14T16:51:03;23.30;66.60
20594;DHT22;10455;48.732;10.266;2023-06-14T16:56:04;23.20;66.90
20594;DHT22;10455;48.732;10.266;2023-06-14T17:01:06;23.00;67.70
20594;DHT22;10455;48.732;10.266;2023-06-14T17:06:10;22.50;69.00
20594;DHT22;10455;48.732;10.266;2023-06-14T17:11:12;22.70;67.90
20594;DHT22;10455;48.732;10.266;2023-06-14T17:16:13;22.40;67.80
20594;DHT22;10455;48.732;10.266;2023-06-14T17:21:17;22.60;69.00
20594;DHT22;10455;48.732;10.266;2023-06-14T17:26:18;22.70;70.40
20594;DHT22;10455;48.732;10.266;2023-06-14T17:31:20;22.50;69.10
20594;DHT22;10455;48.732;10.266;2023-06-14T17:36:24;22.50;70.50
20594;DHT22;10455;48.732;10.266;2023-06-14T17:41:25;22.30;71.10
20594;DHT22;10455;48.732;10.266;2023-06-14T17:46:30;22.40;71.10
20594;DHT22;10455;48.732;10.266;2023-06-14T17:51:33;22.50;70.80
20594;DHT22;10455;48.732;10.266;2023-06-14T17:56:35;22.30;71.50
20594;DHT22;10455;48.732;10.266;2023-06-14T18:01:37;22.20;71.40
20594;DHT22;10455;48.732;10.266;2023-06-14T18:06:40;21.70;72.50
20594;DHT22;10455;48.732;10.266;2023-06-14T18:11:42;21.20;73.40
20594;DHT22;10455;48.732;10.266;2023-06-14T18:16:47;21.30;74.30
20594;DHT22;10455;48.732;10.266;2023-06-14T18:21:50;21.10;75.90
20594;DHT22;10455;48.732;10.266;2023-06-14T18:26:52;20.90;76.60
20594;DHT22;10455;48.732;10.266;2023-06-14T18:31:54;20.50;76.40
20594;DHT22;10455;48.732;10.266;2023-06-14T18:36:58;20.30;77.90
20594;DHT22;10455;48.732;10.266;2023-06-14T18:42:00;20.30;77.90
20594;DHT22;10455;48.732;10.266;2023-06-14T18:47:02;20.50;78.10
20594;DHT22;10455;48.732;10.266;2023-06-14T18:52:07;20.50;78.60
20594;DHT22;10455;48.732;10.266;2023-06-14T18:57:09;20.50;78.50
20594;DHT22;10455;48.732;10.266;2023-06-14T19:02:11;20.50;79.60
20594;DHT22;10455;48.732;10.266;2023-06-14T19:07:15;20.50;79.90
20594;DHT22;10455;48.732;10.266;2023-06-14T19:12:17;20.30;80.20
20594;DHT22;10455;48.732;10.266;2023-06-14T19:17:18;20.00;80.90
20594;DHT22;10455;48.732;10.266;2023-06-14T19:22:22;19.90;81.50
20594;DHT22;10455;48.732;10.266;2023-06-14T19:27:24;19.60;83.00
20594;DHT22;10455;48.732;10.266;2023-06-14T19:32:26;19.50;84.00
20594;DHT22;10455;48.732;10.266;2023-06-14T19:37:29;19.50;84.00
20594;DHT22;10455;48.732;10.266;2023-06-14T19:42:32;19.50;84.40
20594;DHT22;10455;48.732;10.266;2023-06-14T19:47:34;19.40;84.40
20594;DHT22;10455;48.732;10.266;2023-06-14T19:52:37;19.30;84.40
20594;DHT22;10455;48.732;10.266;2023-06-14T19:57:39;19.10;84.60
20594;DHT22;10455;48.732;10.266;2023-06-14T20:02:41;18.90;85.40
20594;DHT22;10455;48.732;10.266;2023-06-14T20:07:44;19.00;85.50
20594;DHT22;10455;48.732;10.266;2023-06-14T20:12:46;18.90;88.40
20594;DHT22;10455;48.732;10.266;2023-06-14T20:17:48;18.50;89.50
20594;DHT22;10455;48.732;10.266;2023-06-14T20:22:52;18.20;89.60
20594;DHT22;10455;48.732;10.266;2023-06-14T20:27:53;18.00;90.10
20594;DHT22;10455;48.732;10.266;2023-06-14T20:32:55;17.90;90.50
20594;DHT22;10455;48.732;10.266;2023-06-14T20:37:59;17.70;90.50
20594;DHT22;10455;48.732;10.266;2023-06-14T20:43:00;17.60;91.10
20594;DHT22;10455;48.732;10.266;2023-06-14T20:48:04;17.50;91.30
20594;DHT22;10455;48.732;10.266;2023-06-14T20:53:07;17.30;91.60
20594;DHT22;10455;48.732;10.266;2023-06-14T20:58:09;17.20;92.00
20594;DHT22;10455;48.732;10.266;2023-06-14T21:03:11;17.00;91.80
20594;DHT22;10455;48.732;10.266;2023-06-14T21:08:14;16.80;92.10
20594;DHT22;10455;48.732;10.266;2023-06-14T21:13:16;16.60;92.70
20594;DHT22;10455;48.732;10.266;2023-06-14T21:18:18;16.50;93.60
20594;DHT22;10455;48.732;10.266;2023-06-14T21:23:21;16.10;94.90
20594;DHT22;10455;48.732;10.266;2023-06-14T21:28:23;15.70;95.60
20594;DHT22;10455;48.732;10.266;2023-06-14T21:33:25;15.10;96.60
20594;DHT22;10455;48.732;10.266;2023-06-14T21:38:28;14.70;98.40
20594;DHT22;10455;48.732;10.266;2023-06-14T21:43:30;14.60;98.80
20594;DHT22;10455;48.732;10.266;2023-06-14T21:48:32;14.40;99.40
20594;DHT22;10455;48.732;10.266;2023-06-14T21:53:35;13.90;99.90
20594;DHT22;10455;48.732;10.266;2023-06-14T21:58:37;13.60;99.90
20594;DHT22;10455;48.732;10.266;2023-06-14T22:03:39;13.30;99.90
20594;DHT22;10455;48.732;10.266;2023-06-14T22:08:43;13.10;99.90
20594;DHT22;10455;48.732;10.266;2023-06-14T22:13:45;12.80;99.90
20594;DHT22;10455;48.732;10.266;2023-06-14T22:18:49;12.60;99.90
20594;DHT22;10455;48.732;10.266;2023-06-14T22:23:53;12.40;99.90
20594;DHT22;10455;48.732;10.266;2023-06-14T22:28:57;12.30;99.90
20594;DHT22;10455;48.732;10.266;2023-06-14T22:34:05;12.20;99.90
20594;DHT22;10455;48.732;10.266;2023-06-14T22:39:09;12.20;99.90
20594;DHT22;10455;48.732;10.266;2023-06-14T22:44:12;12.30;99.90
20594;DHT22;10455;48.732;10.266;2023-06-14T22:49:17;12.10;99.90
20594;DHT22;10455;48.732;10.266;2023-06-14T22:54:20;12.30;99.90
20594;DHT22;10455;48.732;10.266;2023-06-14T22:59:22;12.20;99.90
20594;DHT22;10455;48.732;10.266;2023-06-14T23:04:25;11.90;99.90
20594;DHT22;10455;48.732;10.266;2023-06-14T23:09:28;11.90;99.90
20594;DHT22;10455;48.732;10.266;2023-06-14T23:14:30;11.70;99.90
20594;DHT22;10455;48.732;10.266;2023-06-14T23:19:32;11.50;99.90
20594;DHT22;10455;48.732;10.266;2023-06-14T23:24:35;11.30;99.90
20594;DHT22;10455;48.732;10.266;2023-06-14T23:29:37;11.30;99.90
20594;DHT22;10455;48.732;10.266;2023-06-14T23:34:42;11.30;99.90
20594;DHT22;10455;48.732;10.266;2023-06-14T23:39:46;11.00;99.90
20594;DHT22;10455;48.732;10.266;2023-06-14T23:44:50;10.70;99.90
20594;DHT22;10455;48.732;10.266;2023-06-14T23:49:52;10.60;99.90
20594;DHT22;10455;48.732;10.266;2023-06-14T23:54:55;10.60;99.90
20594;DHT22;10455;48.732;10.266;2023-06-14T23:59:57;10.60;99.90
